Time;durP1;ratioP1;P1;durP2;ratioP2;P2;SDS_P1;SDS_P2;PMS_P1;PMS_P2;Temp;Humidity;BMP_temperature;BMP_pressure;BME280_temperature;BME280_humidity;BME280_pressure;Samples;Min_cycle;Max_cycle;Signal;HPM_P1;HPM_P2
2023/11/10 00:00:46;;;;;;;1999.90;999.90;;;;;;;2.27;80.84;96934.63;5155631;27;20049;-63
2023/11/10 00:03:13;;;;;;;1999.90;999.90;;;;;;;2.24;81.49;96927.75;5155535;27;20099;-65
2023/11/10 00:05:40;;;;;;;1999.90;999.90;;;;;;;2.22;82.23;96924.31;5155512;27;20070;-64
2023/11/10 00:08:10;;;;;;;1999.90;999.90;;;;;;;2.12;83.50;96909.66;5155404;27;20130;-64
2023/11/10 00:10:38;;;;;;;1999.90;999.90;;;;;;;2.13;84.88;96919.13;5155369;27;20042;-65
2023/11/10 00:13:05;;;;;;;1999.90;999.90;;;;;;;2.18;84.61;96908.81;5155329;27;20548;-64
2023/11/10 00:15:34;;;;;;;1999.90;999.90;;;;;;;2.23;83.95;96907.09;5155241;27;20411;-65
2023/11/10 00:18:02;;;;;;;1999.90;999.90;;;;;;;2.24;83.99;96896.78;5154514;27;20046;-63
2023/11/10 00:20:29;;;;;;;1999.90;999.90;;;;;;;2.22;84.40;96907.94;5155375;27;20043;-64
2023/11/10 00:22:57;;;;;;;1999.90;999.90;;;;;;;2.25;84.32;96895.91;5155151;27;20078;-64
2023/11/10 00:25:24;;;;;;;1999.90;999.90;;;;;;;2.32;84.41;96896.75;5155169;27;20468;-64
2023/11/10 00:27:53;;;;;;;1999.90;999.90;;;;;;;2.36;83.95;96902.78;5155519;27;20070;-63
2023/11/10 00:30:20;;;;;;;1999.90;999.90;;;;;;;2.35;83.30;96916.56;5155209;27;20039;-64
2023/11/10 00:32:48;;;;;;;1999.90;999.90;;;;;;;2.32;82.88;96901.91;5155146;27;20514;-63
2023/11/10 00:35:15;;;;;;;1999.90;999.90;;;;;;;2.36;82.47;96907.97;5155067;27;20125;-65
2023/11/10 00:37:42;;;;;;;1999.90;999.90;;;;;;;2.36;82.11;96902.78;5154983;27;20138;-64
2023/11/10 00:40:10;;;;;;;1999.90;999.90;;;;;;;2.27;81.84;96899.38;5154973;27;20046;-63
2023/11/10 00:42:38;;;;;;;1999.90;999.90;;;;;;;2.30;81.69;96892.47;5154830;27;20054;-65
2023/11/10 00:45:08;;;;;;;1999.90;999.90;;;;;;;2.24;84.36;96889.03;5154832;27;20043;-64
2023/11/10 00:47:35;;;;;;;1999.90;999.90;;;;;;;2.18;84.18;96878.69;5155208;27;20046;-64
2023/11/10 00:50:02;;;;;;;1999.90;999.90;;;;;;;2.16;83.73;96877.81;5154888;27;20050;-62
2023/11/10 00:52:29;;;;;;;1999.90;999.90;;;;;;;2.18;83.98;96875.25;5154767;27;20051;-64
2023/11/10 00:54:56;;;;;;;1999.90;999.90;;;;;;;2.21;84.29;96864.91;5154758;27;20111;-64
2023/11/10 00:57:24;;;;;;;1999.90;999.90;;;;;;;2.15;83.99;96858.03;5154753;27;20042;-64
2023/11/10 00:59:51;;;;;;;1999.90;999.90;;;;;;;2.16;83.29;96859.75;5154773;27;20047;-64
2023/11/10 01:02:19;;;;;;;1999.90;999.90;;;;;;;2.19;84.83;96857.16;5154718;27;20043;-64
2023/11/10 01:04:46;;;;;;;1999.90;999.90;;;;;;;2.23;84.53;96858.03;5154642;27;20078;-65
2023/11/10 01:07:13;;;;;;;1999.90;999.90;;;;;;;2.26;83.40;96861.47;5154639;27;20042;-65
2023/11/10 01:09:40;;;;;;;1999.90;999.90;;;;;;;2.26;82.69;96858.06;5154632;27;20050;-63
2023/11/10 01:12:08;;;;;;;1999.90;999.90;;;;;;;2.26;82.68;96860.63;5154594;27;20081;-65
2023/11/10 01:14:35;;;;;;;1999.90;999.90;;;;;;;2.31;82.79;96863.19;5154493;27;20484;-65
2023/11/10 01:17:02;;;;;;;1999.90;999.90;;;;;;;2.35;82.59;96870.94;5154607;27;20097;-63
2023/11/10 01:19:32;;;;;;;1999.90;999.90;;;;;;;2.37;82.53;96865.78;5154354;27;20042;-65
2023/11/10 01:21:59;;;;;;;1999.90;999.90;;;;;;;2.36;82.18;96866.66;5154508;27;20042;-64
2023/11/10 01:24:26;;;;;;;1999.90;999.90;;;;;;;2.36;81.73;96864.94;5154362;27;20043;-64
2023/11/10 01:26:53;;;;;;;1999.90;999.90;;;;;;;2.29;82.07;96865.81;5154369;27;20049;-64
2023/11/10 01:29:20;;;;;;;1999.90;999.90;;;;;;;2.32;82.39;96868.34;5156262;27;20081;-65
2023/11/10 01:31:47;;;;;;;1999.90;999.90;;;;;;;2.30;82.05;96859.75;5158373;27;20057;-63
2023/11/10 01:34:18;;;;;;;1999.90;999.90;;;;;;;2.29;82.29;96860.63;5158455;27;20495;-64
2023/11/10 01:36:47;;;;;;;1999.90;999.90;;;;;;;2.30;82.04;96870.09;5158790;27;20057;-64
2023/11/10 01:39:14;;;;;;;1999.90;999.90;;;;;;;2.27;81.72;96857.19;5158310;27;20051;-64
2023/11/10 01:41:41;;;;;;;1999.90;999.90;;;;;;;2.25;81.68;96843.41;5158283;27;20046;-65
2023/11/10 01:44:08;;;;;;;1999.90;999.90;;;;;;;2.17;82.30;96838.25;5158462;27;20121;-63
2023/11/10 01:46:45;;;;;;;1999.90;999.90;;;;;;;2.15;82.71;96834.81;5158595;27;20045;-63
2023/11/10 01:49:15;;;;;;;1999.90;999.90;;;;;;;2.17;83.46;96833.09;5158444;27;20082;-64
2023/11/10 01:51:42;;;;;;;1999.90;999.90;;;;;;;2.16;83.34;96828.78;5158220;27;20488;-64
2023/11/10 01:54:15;;;;;;;1999.90;999.90;;;;;;;2.19;85.11;96835.66;5158122;27;20043;-62
2023/11/10 01:56:42;;;;;;;1999.90;999.90;;;;;;;2.23;84.78;96838.22;5158015;27;20046;-64
2023/11/10 01:59:14;;;;;;;1999.90;999.90;;;;;;;2.21;84.25;96839.97;5157876;27;20086;-64
2023/11/10 02:01:41;;;;;;;1999.90;999.90;;;;;;;2.23;84.14;96835.66;5157933;27;20047;-63
2023/11/10 02:04:11;;;;;;;1999.90;999.90;;;;;;;2.13;84.68;96842.53;5158195;27;20510;-63
2023/11/10 02:06:41;;;;;;;1999.90;999.90;;;;;;;2.20;84.78;96839.97;5158082;27;20038;-64
2023/11/10 02:09:08;;;;;;;1999.90;999.90;;;;;;;2.21;84.21;96844.28;5157852;27;20103;-65
2023/11/10 02:11:38;;;;;;;1999.90;999.90;;;;;;;2.23;83.95;96843.41;5157838;27;20198;-64
2023/11/10 02:14:06;;;;;;;1999.90;999.90;;;;;;;2.29;84.12;96845.16;5157743;27;20047;-65
2023/11/10 02:16:33;;;;;;;1999.90;999.90;;;;;;;2.31;83.49;96853.72;5157818;27;20050;-64
2023/11/10 02:19:01;;;;;;;1999.90;999.90;;;;;;;2.32;84.14;96854.59;5157649;27;20492;-62
2023/11/10 02:21:29;;;;;;;1999.90;999.90;;;;;;;2.35;83.76;96857.19;5157874;27;20222;-62
2023/11/10 02:23:58;;;;;;;1999.90;999.90;;;;;;;2.37;83.94;96858.91;5157613;27;20147;-64
2023/11/10 02:26:26;;;;;;;1999.90;999.90;;;;;;;2.35;84.32;96857.19;5157775;27;20050;-64
2023/11/10 02:28:53;;;;;;;1999.90;999.90;;;;;;;2.40;84.96;96860.63;5157368;27;20114;-63
2023/11/10 02:31:21;;;;;;;1999.90;999.90;;;;;;;2.46;84.78;96859.75;5157342;27;20130;-64
2023/11/10 02:33:48;;;;;;;1999.90;999.90;;;;;;;2.51;85.42;96855.44;5157339;27;20129;-64
2023/11/10 02:36:15;;;;;;;1999.90;999.90;;;;;;;2.59;86.22;96852.88;5157290;27;20078;-64
2023/11/10 02:38:43;;;;;;;1999.90;999.90;;;;;;;2.62;86.24;96856.28;5157155;27;20377;-63
2023/11/10 02:41:10;;;;;;;1999.90;999.90;;;;;;;2.70;86.80;96851.13;5155901;27;20046;-61
2023/11/10 02:43:39;;;;;;;1999.90;999.90;;;;;;;2.81;87.18;96850.22;5157466;27;20074;-63
2023/11/10 02:46:06;;;;;;;1999.90;999.90;;;;;;;2.80;87.17;96846.78;5157168;27;20122;-65
2023/11/10 02:48:34;;;;;;;1999.90;999.90;;;;;;;2.88;88.29;96847.63;5157093;27;20480;-63
2023/11/10 02:51:01;;;;;;;1999.90;999.90;;;;;;;2.98;88.91;96858.81;5157208;27;20092;-65
2023/11/10 02:53:28;;;;;;;1999.90;999.90;;;;;;;3.04;89.50;96860.50;5156889;27;20085;-63
2023/11/10 02:55:55;;;;;;;1999.90;999.90;;;;;;;3.15;90.32;96857.91;5156814;27;20130;-63
2023/11/10 02:58:22;;;;;;;1999.90;999.90;;;;;;;3.28;90.31;96854.41;5156747;27;20492;-65
2023/11/10 03:00:53;;;;;;;1999.90;999.90;;;;;;;3.32;90.10;96850.09;5156779;27;20126;-64
2023/11/10 03:03:20;;;;;;;1999.90;999.90;;;;;;;3.38;91.01;96842.31;5156861;27;20046;-65
2023/11/10 03:05:47;;;;;;;1999.90;999.90;;;;;;;3.47;91.11;96822.44;5156754;27;20074;-65
2023/11/10 03:08:14;;;;;;;1999.90;999.90;;;;;;;3.58;91.16;96814.63;5156517;27;20093;-64
2023/11/10 03:10:41;;;;;;;1999.90;999.90;;;;;;;3.66;91.58;96818.00;5156793;27;20138;-65
2023/11/10 03:13:09;;;;;;;1999.90;999.90;;;;;;;3.76;91.59;96817.06;5156531;27;20404;-64
2023/11/10 03:15:37;;;;;;;1999.90;999.90;;;;;;;3.83;91.94;96810.16;5156689;27;20078;-64
2023/11/10 03:18:06;;;;;;;1999.90;999.90;;;;;;;3.92;92.08;96811.81;5156530;27;20500;-64
2023/11/10 03:20:33;;;;;;;1999.90;999.90;;;;;;;4.00;91.82;96815.19;5156416;27;20050;-65
2023/11/10 03:23:00;;;;;;;1999.90;999.90;;;;;;;4.07;92.03;96809.97;5156326;27;20123;-63
2023/11/10 03:25:28;;;;;;;1999.90;999.90;;;;;;;4.13;91.71;96813.34;5156240;27;20082;-63
2023/11/10 03:27:55;;;;;;;1999.90;999.90;;;;;;;4.21;91.97;96817.66;5156177;27;20088;-65
2023/11/10 03:30:22;;;;;;;1999.90;999.90;;;;;;;4.26;91.92;96806.38;5156411;27;20094;-63
2023/11/10 03:32:50;;;;;;;1999.90;999.90;;;;;;;4.33;91.52;96803.72;5156132;27;20125;-64
2023/11/10 03:35:18;;;;;;;1999.90;999.90;;;;;;;4.39;91.08;96812.28;5155989;27;20514;-64
2023/11/10 03:37:45;;;;;;;1999.90;999.90;;;;;;;4.42;90.90;96801.03;5156342;27;20042;-63
2023/11/10 03:40:14;;;;;;;1999.90;999.90;;;;;;;4.42;91.09;96803.63;5155610;27;20506;-63
2023/11/10 03:42:42;;;;;;;1999.90;999.90;;;;;;;4.47;91.28;96806.16;5156002;27;20049;-64
2023/11/10 03:45:10;;;;;;;1999.90;999.90;;;;;;;4.50;90.72;96801.84;5156072;27;20125;-62
2023/11/10 03:47:38;;;;;;;1999.90;999.90;;;;;;;4.51;91.00;96800.94;5156095;27;20046;-63
2023/11/10 03:50:07;;;;;;;1999.90;999.90;;;;;;;4.54;91.12;96798.34;5155886;27;20099;-62
2023/11/10 03:52:36;;;;;;;1999.90;999.90;;;;;;;4.59;90.74;96797.41;5155545;27;20094;-64
2023/11/10 03:55:04;;;;;;;1999.90;999.90;;;;;;;4.63;90.58;96792.19;5155756;27;20043;-64
2023/11/10 03:57:32;;;;;;;1999.90;999.90;;;;;;;4.65;90.62;96794.78;5155822;27;20448;-64
2023/11/10 03:59:59;;;;;;;1999.90;999.90;;;;;;;4.67;90.62;96788.69;5155397;27;20095;-64
2023/11/10 04:02:26;;;;;;;1999.90;999.90;;;;;;;4.71;90.79;96784.34;5155712;27;20407;-63
2023/11/10 04:04:53;;;;;;;1999.90;999.90;;;;;;;4.74;90.45;96783.44;5155844;27;20043;-63
2023/11/10 04:07:21;;;;;;;1999.90;999.90;;;;;;;4.76;90.62;96790.31;5155568;27;20070;-64
2023/11/10 04:09:49;;;;;;;1999.90;999.90;;;;;;;4.83;90.70;96782.50;5155337;27;20568;-63
2023/11/10 04:12:16;;;;;;;1999.90;999.90;;;;;;;4.89;90.41;96779.84;5155535;27;20042;-63
2023/11/10 04:14:45;;;;;;;1999.90;999.90;;;;;;;4.91;90.61;96775.50;5155419;27;20042;-62
2023/11/10 04:17:13;;;;;;;1999.90;999.90;;;;;;;4.97;90.43;96780.59;5155364;27;20043;-63
2023/11/10 04:19:39;;;;;;;1999.90;999.90;;;;;;;5.04;90.33;96777.06;5155224;27;20082;-62
2023/11/10 04:22:07;;;;;;;1999.90;999.90;;;;;;;5.07;90.27;96778.75;5155137;27;20043;-62
2023/11/10 04:24:35;;;;;;;1999.90;999.90;;;;;;;5.10;90.46;96775.25;5155300;27;20100;-63
2023/11/10 04:27:04;;;;;;;1999.90;999.90;;;;;;;5.13;90.17;96777.81;5155177;27;20047;-63
2023/11/10 04:29:32;;;;;;;1999.90;999.90;;;;;;;5.14;89.46;96782.13;5155082;27;20046;-64
2023/11/10 04:31:59;;;;;;;1999.90;999.90;;;;;;;5.13;88.79;96778.69;5155110;27;20093;-65
2023/11/10 04:34:26;;;;;;;1999.90;999.90;;;;;;;5.12;88.36;96776.94;5154914;27;20043;-64
2023/11/10 04:36:54;;;;;;;1999.90;999.90;;;;;;;5.10;88.11;96780.44;5154835;27;20053;-64
2023/11/10 04:39:21;;;;;;;1999.90;999.90;;;;;;;5.05;87.91;96778.78;5154857;27;20103;-64
2023/11/10 04:41:49;;;;;;;1999.90;999.90;;;;;;;5.04;87.71;96783.97;5154868;27;20053;-65
2023/11/10 04:44:18;;;;;;;1999.90;999.90;;;;;;;5.02;87.03;96783.13;5154971;27;20131;-64
2023/11/10 04:46:45;;;;;;;1999.90;999.90;;;;;;;4.98;86.46;96773.69;5155090;27;20042;-64
2023/11/10 04:49:16;;;;;;;1999.90;999.90;;;;;;;4.85;85.91;96780.75;5154910;27;20042;-63
2023/11/10 04:51:43;;;;;;;1999.90;999.90;;;;;;;4.80;85.10;96779.06;5154865;27;20050;-62
2023/11/10 04:54:12;;;;;;;1999.90;999.90;;;;;;;4.70;85.24;96771.41;5154842;27;20516;-63
2023/11/10 04:56:45;;;;;;;1999.90;999.90;;;;;;;4.63;85.55;96766.28;5154736;27;20050;-65
2023/11/10 04:59:12;;;;;;;1999.90;999.90;;;;;;;4.61;84.75;96762.84;5154608;27;20055;-64
2023/11/10 05:01:44;;;;;;;1999.90;999.90;;;;;;;4.57;85.29;96768.09;5154719;27;20039;-64
2023/11/10 05:04:12;;;;;;;1999.90;999.90;;;;;;;4.53;86.17;96770.72;5158592;27;20070;-64
2023/11/10 05:06:40;;;;;;;1999.90;999.90;;;;;;;4.50;86.64;96770.75;5161518;27;20046;-65
2023/11/10 05:09:09;;;;;;;1999.90;999.90;;;;;;;4.50;87.39;96767.28;5161425;27;20054;-64
2023/11/10 05:11:37;;;;;;;1999.90;999.90;;;;;;;4.48;86.69;96769.06;5161448;27;20483;-65
2023/11/10 05:14:04;;;;;;;1999.90;999.90;;;;;;;4.46;86.95;96765.59;5161505;27;20053;-63
2023/11/10 05:16:31;;;;;;;1999.90;999.90;;;;;;;4.44;86.91;96773.38;5161520;27;20042;-65
2023/11/10 05:19:00;;;;;;;1999.90;999.90;;;;;;;4.45;87.19;96769.06;5161418;27;20050;-63
2023/11/10 05:21:28;;;;;;;1999.90;999.90;;;;;;;4.46;87.45;96771.66;5161381;27;20068;-65
2023/11/10 05:23:56;;;;;;;1999.90;999.90;;;;;;;4.51;86.96;96769.84;5161570;27;20515;-64
2023/11/10 05:26:25;;;;;;;1999.90;999.90;;;;;;;4.51;87.43;96769.00;5161409;27;20499;-62
2023/11/10 05:28:52;;;;;;;1999.90;999.90;;;;;;;4.58;87.40;96767.22;5161726;27;20077;-63
2023/11/10 05:31:20;;;;;;;1999.90;999.90;;;;;;;4.63;87.97;96770.59;5161481;27;20444;-64
2023/11/10 05:33:48;;;;;;;1999.90;999.90;;;;;;;4.70;87.81;96768.81;5161365;27;20051;-63
2023/11/10 05:36:17;;;;;;;1999.90;999.90;;;;;;;4.78;87.54;96765.25;5161209;27;20427;-64
2023/11/10 05:38:45;;;;;;;1999.90;999.90;;;;;;;4.88;87.06;96775.53;5161223;27;20137;-65
2023/11/10 05:41:13;;;;;;;1999.90;999.90;;;;;;;4.99;86.81;96784.03;5161074;27;20081;-63
2023/11/10 05:43:40;;;;;;;1999.90;999.90;;;;;;;5.09;86.06;96778.75;5161242;27;20049;-62
2023/11/10 05:46:07;;;;;;;1999.90;999.90;;;;;;;5.28;85.91;96784.56;5161200;27;20069;-64
2023/11/10 05:48:34;;;;;;;1999.90;999.90;;;;;;;5.64;83.92;96787.53;5161462;27;20046;-63
2023/11/10 05:51:05;;;;;;;1999.90;999.90;;;;;;;6.40;81.12;96792.44;5161460;27;20047;-65
2023/11/10 05:53:33;;;;;;;1999.90;999.90;;;;;;;6.96;77.73;96796.66;5161183;27;20043;-65
2023/11/10 05:56:01;;;;;;;1999.90;999.90;;;;;;;7.56;75.02;96796.28;5161156;27;20043;-65
2023/11/10 05:58:28;;;;;;;1999.90;999.90;;;;;;;8.03;72.08;96813.47;5161250;27;20047;-64
2023/11/10 06:00:55;;;;;;;1999.90;999.90;;;;;;;8.53;69.17;96827.91;5161128;27;20127;-65
2023/11/10 06:03:22;;;;;;;1999.90;999.90;;;;;;;9.06;66.65;96822.22;5160981;27;20507;-63
2023/11/10 06:05:50;;;;;;;1999.90;999.90;;;;;;;9.58;64.92;96815.56;5160931;27;20050;-65
2023/11/10 06:08:18;;;;;;;1999.90;999.90;;;;;;;9.81;62.69;96820.09;5161022;27;20046;-64
2023/11/10 06:10:52;;;;;;;1999.90;999.90;;;;;;;10.73;60.37;96822.44;5161089;27;20412;-65
2023/11/10 06:13:20;;;;;;;1999.90;999.90;;;;;;;12.05;57.46;96831.66;5161033;27;20086;-64
2023/11/10 06:15:48;;;;;;;1999.90;999.90;;;;;;;13.01;55.32;96831.28;5158785;27;20039;-66
2023/11/10 06:18:15;;;;;;;1999.90;999.90;;;;;;;13.96;53.27;96829.72;5157666;27;20130;-63
2023/11/10 06:20:42;;;;;;;1999.90;999.90;;;;;;;15.02;49.25;96831.66;5157492;27;20057;-63
2023/11/10 06:23:10;;;;;;;1999.90;999.90;;;;;;;16.23;47.15;96824.38;5157648;27;20043;-64
2023/11/10 06:25:38;;;;;;;1999.90;999.90;;;;;;;17.49;43.83;96826.75;5157468;27;20091;-64
2023/11/10 06:28:06;;;;;;;1999.90;999.90;;;;;;;18.37;41.52;96824.00;5157560;27;20074;-64
2023/11/10 06:30:34;;;;;;;1999.90;999.90;;;;;;;19.12;40.39;96829.72;5157399;27;20069;-64
2023/11/10 06:33:01;;;;;;;1999.90;999.90;;;;;;;19.65;39.08;96834.91;5157427;27;20129;-63
2023/11/10 06:35:28;;;;;;;1999.90;999.90;;;;;;;20.20;37.77;96837.22;5157435;27;20047;-64
2023/11/10 06:37:55;;;;;;;1999.90;999.90;;;;;;;20.95;36.59;96837.13;5157121;27;20407;-64
2023/11/10 06:40:23;;;;;;;1999.90;999.90;;;;;;;21.45;35.39;96838.66;5156960;27;20054;-65
2023/11/10 06:42:50;;;;;;;1999.90;999.90;;;;;;;21.59;34.57;96829.59;5157109;27;20085;-64
2023/11/10 06:45:19;;;;;;;1999.90;999.90;;;;;;;21.83;34.80;96825.97;5157048;27;20038;-63
2023/11/10 06:47:46;;;;;;;1999.90;999.90;;;;;;;22.26;34.01;96823.50;5157254;27;20047;-65
2023/11/10 06:50:14;;;;;;;1999.90;999.90;;;;;;;22.30;34.02;96811.63;5156975;27;20179;-64
2023/11/10 06:52:42;;;;;;;1999.90;999.90;;;;;;;22.61;33.21;96808.28;5156886;27;20053;-63
2023/11/10 06:55:13;;;;;;;1999.90;999.90;;;;;;;22.99;32.64;96806.03;5156898;27;20130;-62
2023/11/10 06:57:42;;;;;;;1999.90;999.90;;;;;;;23.28;32.67;96800.03;5156924;27;20047;-62
2023/11/10 07:00:14;;;;;;;1999.90;999.90;;;;;;;23.49;32.48;96793.84;5156754;27;20050;-64
2023/11/10 07:02:45;;;;;;;1999.90;999.90;;;;;;;23.70;32.53;96793.78;5156514;27;20432;-65
2023/11/10 07:05:12;;;;;;;1999.90;999.90;;;;;;;24.06;31.91;96793.31;5156706;27;20047;-62
2023/11/10 07:07:39;;;;;;;1999.90;999.90;;;;;;;24.40;31.62;96792.13;5156724;27;20047;-65
2023/11/10 07:10:08;;;;;;;1999.90;999.90;;;;;;;24.70;30.85;96794.78;5156879;27;20066;-65
2023/11/10 07:12:36;;;;;;;1999.90;999.90;;;;;;;24.83;30.83;96790.00;5156599;27;20107;-65
2023/11/10 07:15:05;;;;;;;1999.90;999.90;;;;;;;25.09;30.67;96788.59;5156568;27;20496;-64
2023/11/10 07:17:33;;;;;;;1999.90;999.90;;;;;;;24.89;30.49;96782.44;5156670;27;20095;-64
2023/11/10 07:20:03;;;;;;;1999.90;999.90;;;;;;;25.03;30.53;96784.66;5156333;27;20050;-65
2023/11/10 07:22:30;;;;;;;1999.90;999.90;;;;;;;24.97;30.82;96780.72;5156484;27;20492;-62
2023/11/10 07:24:57;;;;;;;1999.90;999.90;;;;;;;25.54;29.81;96775.47;5156318;27;20564;-65
2023/11/10 07:27:25;;;;;;;1999.90;999.90;;;;;;;25.19;30.25;96765.31;5155800;27;20047;-65
2023/11/10 07:29:52;;;;;;;44.45;41.70;;;;;;;25.82;29.82;96771.03;5156330;27;20055;-62
2023/11/10 07:32:24;;;;;;;41.05;38.55;;;;;;;26.45;28.99;96773.03;5156335;27;20141;-65
2023/11/10 07:34:51;;;;;;;44.17;41.58;;;;;;;26.93;28.37;96770.06;5156163;27;20092;-65
2023/11/10 07:37:20;;;;;;;40.58;38.25;;;;;;;27.73;27.61;96769.09;5156157;27;20047;-64
2023/11/10 07:39:48;;;;;;;37.92;35.53;;;;;;;28.33;26.22;96766.44;5156090;27;20057;-65
2023/11/10 07:42:16;;;;;;;41.25;38.58;;;;;;;28.63;25.85;96769.47;5155908;27;20035;-65
2023/11/10 07:44:44;;;;;;;39.15;36.75;;;;;;;28.61;25.95;96759.88;5156007;27;20108;-65
2023/11/10 07:47:11;;;;;;;42.47;39.88;;;;;;;28.80;25.60;96760.56;5155909;27;20099;-64
2023/11/10 07:49:39;;;;;;;42.08;39.40;;;;;;;28.44;25.79;96749.09;5155869;27;20053;-65
2023/11/10 07:52:06;;;;;;;42.40;39.53;;;;;;;28.03;26.48;96749.03;5155807;27;20480;-64
2023/11/10 07:54:35;;;;;;;37.05;34.72;;;;;;;27.07;27.23;96753.44;5155984;27;20133;-63
2023/11/10 07:57:03;;;;;;;37.72;35.20;;;;;;;26.30;28.41;96748.59;5155714;27;20480;-65
2023/11/10 07:59:31;;;;;;;34.83;32.72;;;;;;;25.86;29.39;96737.56;5155792;27;20047;-62
2023/11/10 08:02:01;;;;;;;32.25;30.30;;;;;;;24.96;30.57;96730.88;5155628;27;20085;-63
2023/11/10 08:04:29;;;;;;;;;;;;;;;23.95;31.91;96726.66;5155964;27;20042;-62
2023/11/10 08:06:56;;;;;;;48.38;45.35;;;;;;;23.27;32.53;96714.78;5155798;27;19969;-62
2023/11/10 08:09:23;;;;;;;43.85;40.85;;;;;;;22.46;34.12;96715.25;5155571;27;20047;-63
2023/11/10 08:11:52;;;;;;;49.58;46.17;;;;;;;21.61;36.01;96698.25;5155418;27;20053;-64
2023/11/10 08:14:19;;;;;;;1514.55;763.65;;;;;;;20.68;38.81;96704.50;5155588;27;20042;-63
2023/11/10 08:16:46;;;;;;;1999.90;999.90;;;;;;;19.98;39.60;96699.88;5155304;27;20082;-63
2023/11/10 08:19:13;;;;;;;1999.90;999.90;;;;;;;19.50;40.84;96701.53;5155459;27;20448;-66
2023/11/10 08:21:40;;;;;;;1999.90;999.90;;;;;;;19.23;40.91;96694.59;5155213;27;20079;-64
2023/11/10 08:24:09;;;;;;;1999.90;999.90;;;;;;;19.00;41.69;96690.88;5155106;27;20046;-63
2023/11/10 08:26:36;;;;;;;1999.90;999.90;;;;;;;18.42;42.63;96692.13;5155209;27;20502;-63
2023/11/10 08:29:04;;;;;;;1999.90;999.90;;;;;;;18.01;43.66;96688.63;5155093;27;20412;-64
2023/11/10 08:31:32;;;;;;;1999.90;999.90;;;;;;;17.56;44.53;96689.75;5155094;27;20099;-62
2023/11/10 08:33:59;;;;;;;1999.90;999.90;;;;;;;17.16;46.65;96686.00;5155020;27;20049;-63
2023/11/10 08:36:26;;;;;;;1999.90;999.90;;;;;;;16.97;47.31;96669.56;5155042;27;20050;-64
2023/11/10 08:38:53;;;;;;;1999.90;999.90;;;;;;;16.90;46.99;96666.47;5154240;27;20043;-65
2023/11/10 08:41:20;;;;;;;1999.90;999.90;;;;;;;16.76;45.67;96662.88;5154663;27;20059;-65
2023/11/10 08:43:48;;;;;;;1999.90;999.90;;;;;;;16.71;46.89;96664.13;5154898;27;20408;-63
2023/11/10 08:46:16;;;;;;;1999.90;999.90;;;;;;;16.50;46.29;96662.66;5155076;27;20103;-65
2023/11/10 08:48:43;;;;;;;1999.90;999.90;;;;;;;15.75;47.86;96666.13;5155181;27;20499;-65
2023/11/10 08:51:11;;;;;;;1999.90;999.90;;;;;;;15.33;49.54;96657.91;5155087;27;20076;-64
2023/11/10 08:53:38;;;;;;;1999.90;999.90;;;;;;;15.10;50.48;96654.75;5154741;27;20042;-65
2023/11/10 08:56:06;;;;;;;1999.90;999.90;;;;;;;14.95;49.16;96654.66;5154819;27;20121;-65
2023/11/10 08:58:33;;;;;;;1999.90;999.90;;;;;;;14.83;50.96;96661.41;5154740;27;20099;-64
2023/11/10 09:01:00;;;;;;;1999.90;999.90;;;;;;;14.88;51.06;96658.53;5154979;27;20047;-64
2023/11/10 09:03:29;;;;;;;1999.90;999.90;;;;;;;15.04;51.21;96653.28;5154662;27;20046;-63
2023/11/10 09:05:56;;;;;;;1999.90;999.90;;;;;;;14.92;49.57;96662.72;5154716;27;20055;-62
2023/11/10 09:08:24;;;;;;;1999.90;999.90;;;;;;;14.97;50.17;96668.59;5154686;27;20057;-63
2023/11/10 09:10:51;;;;;;;1999.90;999.90;;;;;;;15.20;50.73;96666.47;5154560;27;20473;-63
2023/11/10 09:13:18;;;;;;;1999.90;999.90;;;;;;;14.81;50.55;96665.91;5154718;27;20107;-64
2023/11/10 09:15:45;;;;;;;1999.90;999.90;;;;;;;15.00;51.90;96660.53;5154668;27;20047;-65
2023/11/10 09:18:13;;;;;;;1999.90;999.90;;;;;;;15.13;52.80;96662.47;5154633;27;20385;-63
2023/11/10 09:20:41;;;;;;;1999.90;999.90;;;;;;;15.26;50.58;96650.31;5154598;27;20062;-63
2023/11/10 09:23:09;;;;;;;1999.90;999.90;;;;;;;15.12;50.39;96653.75;5154608;27;20118;-65
2023/11/10 09:25:36;;;;;;;1999.90;999.90;;;;;;;15.28;51.55;96650.25;5154549;27;20047;-64
2023/11/10 09:28:04;;;;;;;1999.90;999.90;;;;;;;15.44;51.50;96647.59;5154511;27;20128;-63
2023/11/10 09:30:33;;;;;;;1999.90;999.90;;;;;;;15.58;50.30;96648.59;5154525;27;20047;-64
2023/11/10 09:33:00;;;;;;;1999.90;999.90;;;;;;;15.39;50.30;96653.13;5154438;27;20061;-65
2023/11/10 09:35:27;;;;;;;1999.90;999.90;;;;;;;15.26;50.95;96654.78;5154420;27;20137;-64
2023/11/10 09:37:56;;;;;;;1999.90;999.90;;;;;;;15.20;51.54;96645.41;5154335;27;20373;-62
2023/11/10 09:40:23;;;;;;;1999.90;999.90;;;;;;;15.14;51.54;96646.59;5154229;27;20121;-63
2023/11/10 09:42:51;;;;;;;1999.90;999.90;;;;;;;15.12;51.39;96635.31;5154428;27;20043;-63
2023/11/10 09:45:18;;;;;;;1999.90;999.90;;;;;;;14.97;51.24;96642.25;5154384;27;20049;-63
2023/11/10 09:47:46;;;;;;;1999.90;999.90;;;;;;;15.04;51.48;96637.50;5154291;27;20043;-63
2023/11/10 09:50:15;;;;;;;1999.90;999.90;;;;;;;14.78;51.86;96631.88;5156008;27;20078;-64
2023/11/10 09:52:44;;;;;;;1999.90;999.90;;;;;;;14.63;52.78;96629.06;5158513;27;20491;-64
2023/11/10 09:55:13;;;;;;;1999.90;999.90;;;;;;;14.60;53.35;96623.13;5158219;27;20053;-63
2023/11/10 09:57:41;;;;;;;1999.90;999.90;;;;;;;14.55;53.66;96623.38;5158062;27;20484;-64
2023/11/10 10:00:13;;;;;;;1999.90;999.90;;;;;;;14.68;53.79;96620.94;5158139;27;20070;-62
2023/11/10 10:02:40;;;;;;;1999.90;999.90;;;;;;;14.61;53.50;96615.16;5158020;27;20054;-62
2023/11/10 10:05:09;;;;;;;1999.90;999.90;;;;;;;14.60;54.08;96607.34;5157980;27;20038;-62
2023/11/10 10:07:37;;;;;;;1999.90;999.90;;;;;;;14.68;54.30;96607.78;5157919;27;20453;-64
2023/11/10 10:10:05;;;;;;;1999.90;999.90;;;;;;;14.73;54.60;96603.13;5157872;27;20049;-65
2023/11/10 10:12:35;;;;;;;1999.90;999.90;;;;;;;14.72;54.92;96590.03;5157800;27;20046;-64
2023/11/10 10:15:02;;;;;;;1999.90;999.90;;;;;;;14.62;54.83;96574.72;5157913;27;20043;-65
2023/11/10 10:17:36;;;;;;;1999.90;999.90;;;;;;;14.59;55.25;96587.19;5157842;27;20135;-63
2023/11/10 10:20:09;;;;;;;1999.90;999.90;;;;;;;14.75;55.38;96590.69;5157730;27;20043;-65
2023/11/10 10:22:37;;;;;;;1999.90;999.90;;;;;;;14.87;54.06;96596.28;5157664;27;20101;-63
2023/11/10 10:25:05;;;;;;;1999.90;999.90;;;;;;;14.63;54.29;96592.22;5157892;27;20043;-63
2023/11/10 10:27:34;;;;;;;1999.90;999.90;;;;;;;14.65;54.54;96578.97;5157575;27;20050;-62
2023/11/10 10:30:01;;;;;;;1999.90;999.90;;;;;;;14.61;54.87;96586.19;5157415;27;20043;-63
2023/11/10 10:32:28;;;;;;;1999.90;999.90;;;;;;;14.50;55.20;96578.00;5157392;27;20487;-62
2023/11/10 10:34:55;;;;;;;1999.90;999.90;;;;;;;14.42;56.07;96574.94;5157782;27;20038;-65
2023/11/10 10:37:23;;;;;;;1999.90;999.90;;;;;;;14.53;55.92;96562.91;5157471;27;20042;-63
2023/11/10 10:39:51;;;;;;;1999.90;999.90;;;;;;;14.62;55.30;96561.56;5157233;27;20400;-64
2023/11/10 10:42:22;;;;;;;1999.90;999.90;;;;;;;14.69;55.47;96548.06;5156959;27;20054;-64
2023/11/10 10:44:51;;;;;;;1999.90;999.90;;;;;;;14.74;55.74;96535.50;5157091;27;20484;-63
2023/11/10 10:47:19;;;;;;;1999.90;999.90;;;;;;;14.70;55.05;96534.84;5157160;27;20047;-65
2023/11/10 10:49:48;;;;;;;1999.90;999.90;;;;;;;14.59;55.07;96534.56;5157113;27;20090;-62
2023/11/10 10:52:19;;;;;;;1999.90;999.90;;;;;;;14.32;54.67;96516.69;5157243;27;20054;-65
2023/11/10 10:54:48;;;;;;;1999.90;999.90;;;;;;;14.27;56.17;96498.53;5157249;27;20408;-64
2023/11/10 10:57:15;;;;;;;1999.90;999.90;;;;;;;14.25;56.37;96492.50;5157074;27;20043;-65
2023/11/10 10:59:44;;;;;;;1999.90;999.90;;;;;;;14.35;54.88;96485.81;5156884;27;20042;-65
2023/11/10 11:02:14;;;;;;;1999.90;999.90;;;;;;;14.35;55.20;96477.06;5155863;27;20047;-65